X  Close Metar Aviation Weather Data        KDWH George Bush Intercontinental Airport
Temperature
82°F Temperature
75°F Dewpoint
79% Humidity



Wind
5 MPH
7 KM/H
2 M/S
4 KTS



350°
N
Current Conditions

Partly Cloudy Partly Cloudy
Pressure 1017 (hPa) - 30.04 (inHg)
Visibility 8 (mile) - 13 (km)
Airport
Airport-code KDWH

Location: George Bush Intercontinental Airport
Distance: 12 (mi)

Metar:
METAR KDWH 201453Z 35004KT 8SM SCT011 28/24 A3005 RMK AO2 SLP172 T02780239 50014 $

Time: 2024-07-20 09:53 CDT